sensor_id;sensor_type;location;lat;lon;timestamp;pressure;altitude;pressure_sealevel;temperature;humidity
67840;BME280;54636;51.684;5.142;2024-03-06T00:02:04;101779.13;;;3.47;100.00
67840;BME280;54636;51.684;5.142;2024-03-06T00:04:30;101776.13;;;3.42;100.00
67840;BME280;54636;51.684;5.142;2024-03-06T00:06:55;101775.44;;;3.38;100.00
67840;BME280;54636;51.684;5.142;2024-03-06T00:09:23;101784.25;;;3.38;100.00
67840;BME280;54636;51.684;5.142;2024-03-06T00:11:48;101778.53;;;3.36;100.00
67840;BME280;54636;51.684;5.142;2024-03-06T00:14:16;101782.38;;;3.35;100.00
67840;BME280;54636;51.684;5.142;2024-03-06T00:16:42;101785.88;;;3.32;100.00
67840;BME280;54636;51.684;5.142;2024-03-06T00:19:08;101784.00;;;3.29;100.00
67840;BME280;54636;51.684;5.142;2024-03-06T00:21:33;101789.38;;;3.29;100.00
67840;BME280;54636;51.684;5.142;2024-03-06T00:23:59;101792.88;;;3.26;100.00
67840;BME280;54636;51.684;5.142;2024-03-06T00:26:24;101792.94;;;3.22;100.00
67840;BME280;54636;51.684;5.142;2024-03-06T00:28:49;101803.72;;;3.19;100.00
67840;BME280;54636;51.684;5.142;2024-03-06T00:31:15;101793.78;;;3.16;100.00
67840;BME280;54636;51.684;5.142;2024-03-06T00:33:40;101797.25;;;3.16;100.00
67840;BME280;54636;51.684;5.142;2024-03-06T00:36:06;101805.25;;;3.20;100.00
67840;BME280;54636;51.684;5.142;2024-03-06T00:38:31;101802.56;;;3.20;100.00
67840;BME280;54636;51.684;5.142;2024-03-06T00:40:57;101802.56;;;3.20;100.00
67840;BME280;54636;51.684;5.142;2024-03-06T00:43:23;101804.03;;;3.24;100.00
67840;BME280;54636;51.684;5.142;2024-03-06T00:45:48;101809.06;;;3.22;100.00
67840;BME280;54636;51.684;5.142;2024-03-06T00:48:13;101804.94;;;3.14;100.00
67840;BME280;54636;51.684;5.142;2024-03-06T00:50:39;101816.84;;;3.13;100.00
67840;BME280;54636;51.684;5.142;2024-03-06T00:53:05;101814.19;;;3.10;100.00
67840;BME280;54636;51.684;5.142;2024-03-06T00:55:31;101816.97;;;3.03;100.00
67840;BME280;54636;51.684;5.142;2024-03-06T00:57:56;101822.03;;;2.97;100.00
67840;BME280;54636;51.684;5.142;2024-03-06T01:00:22;101818.63;;;2.93;100.00
67840;BME280;54636;51.684;5.142;2024-03-06T01:02:47;101815.63;;;2.87;100.00
67840;BME280;54636;51.684;5.142;2024-03-06T01:05:12;101822.53;;;2.88;100.00
67840;BME280;54636;51.684;5.142;2024-03-06T01:07:38;101825.59;;;2.87;100.00
67840;BME280;54636;51.684;5.142;2024-03-06T01:10:05;101827.97;;;2.81;100.00
67840;BME280;54636;51.684;5.142;2024-03-06T01:12:32;101837.97;;;2.77;100.00
67840;BME280;54636;51.684;5.142;2024-03-06T01:14:57;101845.66;;;2.75;100.00
67840;BME280;54636;51.684;5.142;2024-03-06T01:17:23;101844.19;;;2.71;100.00
67840;BME280;54636;51.684;5.142;2024-03-06T01:19:48;101838.88;;;2.67;100.00
67840;BME280;54636;51.684;5.142;2024-03-06T01:22:14;101845.38;;;2.66;100.00
67840;BME280;54636;51.684;5.142;2024-03-06T01:24:39;101841.19;;;2.65;100.00
67840;BME280;54636;51.684;5.142;2024-03-06T01:27:05;101841.22;;;2.61;100.00
67840;BME280;54636;51.684;5.142;2024-03-06T01:29:31;101837.78;;;2.61;100.00
67840;BME280;54636;51.684;5.142;2024-03-06T01:31:56;101841.69;;;2.56;100.00
67840;BME280;54636;51.684;5.142;2024-03-06T01:34:21;101845.94;;;2.54;100.00
67840;BME280;54636;51.684;5.142;2024-03-06T01:36:47;101851.28;;;2.54;100.00
67840;BME280;54636;51.684;5.142;2024-03-06T01:39:13;101858.56;;;2.53;100.00
67840;BME280;54636;51.684;5.142;2024-03-06T01:41:44;101858.59;;;2.50;100.00
67840;BME280;54636;51.684;5.142;2024-03-06T01:44:10;101863.59;;;2.48;100.00
67840;BME280;54636;51.684;5.142;2024-03-06T01:46:35;101860.16;;;2.47;100.00
67840;BME280;54636;51.684;5.142;2024-03-06T01:49:00;101853.72;;;2.41;100.00
67840;BME280;54636;51.684;5.142;2024-03-06T01:51:26;101851.03;;;2.41;100.00
67840;BME280;54636;51.684;5.142;2024-03-06T01:53:52;101855.66;;;2.37;100.00
67840;BME280;54636;51.684;5.142;2024-03-06T01:56:17;101862.59;;;2.35;100.00
67840;BME280;54636;51.684;5.142;2024-03-06T01:58:45;101862.63;;;2.31;100.00
67840;BME280;54636;51.684;5.142;2024-03-06T02:01:12;101863.41;;;2.28;100.00
67840;BME280;54636;51.684;5.142;2024-03-06T02:03:38;101873.38;;;2.27;100.00
67840;BME280;54636;51.684;5.142;2024-03-06T02:06:04;101876.06;;;2.27;100.00
67840;BME280;54636;51.684;5.142;2024-03-06T02:08:30;101881.00;;;2.29;100.00
67840;BME280;54636;51.684;5.142;2024-03-06T02:10:55;101879.50;;;2.28;100.00
67840;BME280;54636;51.684;5.142;2024-03-06T02:13:21;101881.81;;;2.26;100.00
67840;BME280;54636;51.684;5.142;2024-03-06T02:15:46;101872.66;;;2.20;100.00
67840;BME280;54636;51.684;5.142;2024-03-06T02:18:12;101884.53;;;2.19;100.00
67840;BME280;54636;51.684;5.142;2024-03-06T02:20:38;101884.56;;;2.15;100.00
67840;BME280;54636;51.684;5.142;2024-03-06T02:23:05;101888.03;;;2.12;100.00
67840;BME280;54636;51.684;5.142;2024-03-06T02:25:30;101886.91;;;2.10;100.00
67840;BME280;54636;51.684;5.142;2024-03-06T02:27:56;101888.09;;;2.05;100.00
67840;BME280;54636;51.684;5.142;2024-03-06T02:30:21;101883.16;;;2.00;100.00
67840;BME280;54636;51.684;5.142;2024-03-06T02:32:46;101885.06;;;1.99;100.00
67840;BME280;54636;51.684;5.142;2024-03-06T02:35:12;101885.88;;;1.96;100.00
67840;BME280;54636;51.684;5.142;2024-03-06T02:37:38;101880.97;;;1.91;100.00
67840;BME280;54636;51.684;5.142;2024-03-06T02:40:06;101885.91;;;1.93;100.00
67840;BME280;54636;51.684;5.142;2024-03-06T02:42:32;101885.91;;;1.93;100.00
67840;BME280;54636;51.684;5.142;2024-03-06T02:44:58;101884.03;;;1.90;100.00
67840;BME280;54636;51.684;5.142;2024-03-06T02:47:23;101880.97;;;1.88;100.00
67840;BME280;54636;51.684;5.142;2024-03-06T02:49:49;101889.41;;;1.86;100.00
67840;BME280;54636;51.684;5.142;2024-03-06T02:52:14;101886.38;;;1.84;100.00
67840;BME280;54636;51.684;5.142;2024-03-06T02:54:42;101888.28;;;1.84;100.00
67840;BME280;54636;51.684;5.142;2024-03-06T02:57:08;101892.09;;;1.86;100.00
67840;BME280;54636;51.684;5.142;2024-03-06T02:59:33;101887.88;;;1.89;100.00
67840;BME280;54636;51.684;5.142;2024-03-06T03:01:59;101893.22;;;1.89;100.00
67840;BME280;54636;51.684;5.142;2024-03-06T03:04:25;101885.56;;;1.91;100.00
67840;BME280;54636;51.684;5.142;2024-03-06T03:06:51;101880.56;;;1.93;100.00
67840;BME280;54636;51.684;5.142;2024-03-06T03:09:17;101897.31;;;2.01;100.00
67840;BME280;54636;51.684;5.142;2024-03-06T03:11:43;101898.00;;;2.12;100.00
67840;BME280;54636;51.684;5.142;2024-03-06T03:14:09;101891.81;;;2.18;100.00
67840;BME280;54636;51.684;5.142;2024-03-06T03:16:34;101895.97;;;2.26;100.00
67840;BME280;54636;51.684;5.142;2024-03-06T03:19:01;101891.69;;;2.36;100.00
67840;BME280;54636;51.684;5.142;2024-03-06T03:21:27;101892.63;;;2.56;100.00
67840;BME280;54636;51.684;5.142;2024-03-06T03:23:52;101893.69;;;2.62;100.00
67840;BME280;54636;51.684;5.142;2024-03-06T03:26:18;101885.34;;;2.57;100.00
67840;BME280;54636;51.684;5.142;2024-03-06T03:28:43;101901.34;;;2.64;100.00
67840;BME280;54636;51.684;5.142;2024-03-06T03:31:09;101897.50;;;2.65;100.00
67840;BME280;54636;51.684;5.142;2024-03-06T03:33:38;101888.66;;;2.68;100.00
67840;BME280;54636;51.684;5.142;2024-03-06T03:36:07;101892.09;;;2.69;100.00
67840;BME280;54636;51.684;5.142;2024-03-06T03:38:34;101896.69;;;2.72;100.00
67840;BME280;54636;51.684;5.142;2024-03-06T03:41:07;101895.88;;;2.75;100.00
67840;BME280;54636;51.684;5.142;2024-03-06T03:43:32;101899.28;;;2.79;100.00
67840;BME280;54636;51.684;5.142;2024-03-06T03:45:58;101900.81;;;2.80;100.00
67840;BME280;54636;51.684;5.142;2024-03-06T03:48:24;101897.75;;;2.78;100.00
67840;BME280;54636;51.684;5.142;2024-03-06T03:50:49;101905.44;;;2.76;100.00
67840;BME280;54636;51.684;5.142;2024-03-06T03:53:14;101903.19;;;2.71;100.00
67840;BME280;54636;51.684;5.142;2024-03-06T03:55:41;101921.19;;;2.74;100.00
67840;BME280;54636;51.684;5.142;2024-03-06T03:58:06;101917.34;;;2.75;100.00
67840;BME280;54636;51.684;5.142;2024-03-06T04:00:32;101913.91;;;2.74;100.00
67840;BME280;54636;51.684;5.142;2024-03-06T04:02:58;101909.69;;;2.73;100.00
67840;BME280;54636;51.684;5.142;2024-03-06T04:05:23;101916.25;;;2.69;100.00
67840;BME280;54636;51.684;5.142;2024-03-06T04:07:48;101918.53;;;2.70;100.00
67840;BME280;54636;51.684;5.142;2024-03-06T04:10:14;101915.88;;;2.67;100.00
67840;BME280;54636;51.684;5.142;2024-03-06T04:12:39;101915.94;;;2.63;100.00
67840;BME280;54636;51.684;5.142;2024-03-06T04:15:05;101910.25;;;2.57;100.00
67840;BME280;54636;51.684;5.142;2024-03-06T04:17:31;101908.72;;;2.56;100.00
67840;BME280;54636;51.684;5.142;2024-03-06T04:19:56;101916.06;;;2.52;100.00
67840;BME280;54636;51.684;5.142;2024-03-06T04:22:21;101912.63;;;2.48;100.00
67840;BME280;54636;51.684;5.142;2024-03-06T04:24:47;101920.72;;;2.45;100.00
67840;BME280;54636;51.684;5.142;2024-03-06T04:27:13;101921.91;;;2.40;100.00
67840;BME280;54636;51.684;5.142;2024-03-06T04:29:38;101929.94;;;2.40;100.00
67840;BME280;54636;51.684;5.142;2024-03-06T04:32:04;101925.75;;;2.39;100.00
67840;BME280;54636;51.684;5.142;2024-03-06T04:34:29;101923.47;;;2.38;100.00
67840;BME280;54636;51.684;5.142;2024-03-06T04:36:54;101930.34;;;2.39;100.00
67840;BME280;54636;51.684;5.142;2024-03-06T04:39:20;101929.97;;;2.37;100.00
67840;BME280;54636;51.684;5.142;2024-03-06T04:41:45;101931.13;;;2.36;100.00
67840;BME280;54636;51.684;5.142;2024-03-06T04:44:10;101929.25;;;2.33;100.00
67840;BME280;54636;51.684;5.142;2024-03-06T04:46:36;101933.09;;;2.31;100.00
67840;BME280;54636;51.684;5.142;2024-03-06T04:49:02;101944.56;;;2.32;100.00
67840;BME280;54636;51.684;5.142;2024-03-06T04:51:28;101939.59;;;2.30;100.00
67840;BME280;54636;51.684;5.142;2024-03-06T04:53:53;101940.00;;;2.29;100.00
67840;BME280;54636;51.684;5.142;2024-03-06T04:56:19;101945.34;;;2.29;100.00
67840;BME280;54636;51.684;5.142;2024-03-06T04:58:46;101945.38;;;2.25;100.00
67840;BME280;54636;51.684;5.142;2024-03-06T05:01:12;101958.41;;;2.23;100.00
67840;BME280;54636;51.684;5.142;2024-03-06T05:03:38;101956.94;;;2.15;100.00
67840;BME280;54636;51.684;5.142;2024-03-06T05:06:04;101961.94;;;2.13;100.00
67840;BME280;54636;51.684;5.142;2024-03-06T05:08:30;101956.97;;;2.12;100.00
67840;BME280;54636;51.684;5.142;2024-03-06T05:10:56;101966.56;;;2.06;100.00
67840;BME280;54636;51.684;5.142;2024-03-06T05:13:22;101968.91;;;2.00;100.00
67840;BME280;54636;51.684;5.142;2024-03-06T05:15:47;101972.03;;;1.95;100.00
67840;BME280;54636;51.684;5.142;2024-03-06T05:18:13;101978.94;;;1.89;100.00
67840;BME280;54636;51.684;5.142;2024-03-06T05:20:38;101980.50;;;1.86;100.00
67840;BME280;54636;51.684;5.142;2024-03-06T05:23:03;101983.56;;;1.85;100.00
67840;BME280;54636;51.684;5.142;2024-03-06T05:25:29;101984.72;;;1.84;100.00
67840;BME280;54636;51.684;5.142;2024-03-06T05:27:54;101982.06;;;1.80;100.00
67840;BME280;54636;51.684;5.142;2024-03-06T05:30:19;101992.38;;;1.85;100.00
67840;BME280;54636;51.684;5.142;2024-03-06T05:32:45;101995.41;;;1.87;100.00
67840;BME280;54636;51.684;5.142;2024-03-06T05:35:12;101991.97;;;1.87;100.00
67840;BME280;54636;51.684;5.142;2024-03-06T05:37:37;101994.63;;;1.90;100.00
67840;BME280;54636;51.684;5.142;2024-03-06T05:40:03;102000.00;;;1.90;100.00
67840;BME280;54636;51.684;5.142;2024-03-06T05:42:32;101999.22;;;1.90;100.00
67840;BME280;54636;51.684;5.142;2024-03-06T05:44:57;102005.75;;;1.85;100.00
67840;BME280;54636;51.684;5.142;2024-03-06T05:47:31;102014.56;;;1.86;100.00
67840;BME280;54636;51.684;5.142;2024-03-06T05:49:56;102017.25;;;1.86;100.00
67840;BME280;54636;51.684;5.142;2024-03-06T05:52:21;102024.91;;;1.84;100.00
67840;BME280;54636;51.684;5.142;2024-03-06T05:54:47;102026.44;;;1.81;100.00
67840;BME280;54636;51.684;5.142;2024-03-06T05:57:12;102035.25;;;1.82;100.00
67840;BME280;54636;51.684;5.142;2024-03-06T05:59:38;102032.94;;;1.84;100.00
67840;BME280;54636;51.684;5.142;2024-03-06T06:02:05;102034.50;;;1.78;100.00
67840;BME280;54636;51.684;5.142;2024-03-06T06:04:31;102028.78;;;1.72;100.00
67840;BME280;54636;51.684;5.142;2024-03-06T06:06:56;102022.31;;;1.66;100.00
67840;BME280;54636;51.684;5.142;2024-03-06T06:09:22;102023.84;;;1.63;100.00
67840;BME280;54636;51.684;5.142;2024-03-06T06:11:47;102025.75;;;1.59;100.00
67840;BME280;54636;51.684;5.142;2024-03-06T06:14:12;102026.94;;;1.55;100.00
67840;BME280;54636;51.684;5.142;2024-03-06T06:16:38;102038.03;;;1.53;100.00
67840;BME280;54636;51.684;5.142;2024-03-06T06:19:06;102039.94;;;1.53;100.00
67840;BME280;54636;51.684;5.142;2024-03-06T06:21:32;102051.44;;;1.50;100.00
67840;BME280;54636;51.684;5.142;2024-03-06T06:23:58;102041.88;;;1.45;100.00
67840;BME280;54636;51.684;5.142;2024-03-06T06:26:23;102054.50;;;1.41;100.00
67840;BME280;54636;51.684;5.142;2024-03-06T06:28:49;102051.47;;;1.36;100.00
67840;BME280;54636;51.684;5.142;2024-03-06T06:31:14;102054.13;;;1.43;100.00
67840;BME280;54636;51.684;5.142;2024-03-06T06:33:40;102057.56;;;1.43;100.00
67840;BME280;54636;51.684;5.142;2024-03-06T06:36:06;102065.22;;;1.45;100.00
67840;BME280;54636;51.684;5.142;2024-03-06T06:38:31;102062.91;;;1.47;100.00
67840;BME280;54636;51.684;5.142;2024-03-06T06:40:56;102072.06;;;1.49;100.00
67840;BME280;54636;51.684;5.142;2024-03-06T06:43:22;102063.28;;;1.45;100.00
67840;BME280;54636;51.684;5.142;2024-03-06T06:45:47;102079.72;;;1.58;100.00
67840;BME280;54636;51.684;5.142;2024-03-06T06:48:13;102089.28;;;1.59;100.00
67840;BME280;54636;51.684;5.142;2024-03-06T06:50:38;102092.69;;;1.63;100.00
67840;BME280;54636;51.684;5.142;2024-03-06T06:53:04;102089.63;;;1.68;100.00
67840;BME280;54636;51.684;5.142;2024-03-06T06:55:30;102083.13;;;1.65;100.00
67840;BME280;54636;51.684;5.142;2024-03-06T06:57:56;102091.16;;;1.73;100.00
67840;BME280;54636;51.684;5.142;2024-03-06T07:00:21;102098.03;;;1.77;100.00
67840;BME280;54636;51.684;5.142;2024-03-06T07:02:48;102102.63;;;1.77;100.00
67840;BME280;54636;51.684;5.142;2024-03-06T07:05:15;102102.22;;;1.78;100.00
67840;BME280;54636;51.684;5.142;2024-03-06T07:07:40;102109.09;;;1.83;100.00
67840;BME280;54636;51.684;5.142;2024-03-06T07:10:06;102105.25;;;1.87;100.00
67840;BME280;54636;51.684;5.142;2024-03-06T07:12:32;102117.06;;;1.97;100.00
67840;BME280;54636;51.684;5.142;2024-03-06T07:14:58;102118.97;;;2.04;100.00
67840;BME280;54636;51.684;5.142;2024-03-06T07:17:24;102121.22;;;2.12;100.00
67840;BME280;54636;51.684;5.142;2024-03-06T07:19:50;102126.56;;;2.19;100.00
67840;BME280;54636;51.684;5.142;2024-03-06T07:22:16;102135.31;;;2.27;100.00
67840;BME280;54636;51.684;5.142;2024-03-06T07:24:41;102129.94;;;2.34;100.00
67840;BME280;54636;51.684;5.142;2024-03-06T07:27:07;102138.31;;;2.43;100.00
67840;BME280;54636;51.684;5.142;2024-03-06T07:29:36;102140.56;;;2.52;100.00
67840;BME280;54636;51.684;5.142;2024-03-06T07:32:02;102142.78;;;2.60;100.00
67840;BME280;54636;51.684;5.142;2024-03-06T07:34:27;102124.81;;;2.57;100.00
67840;BME280;54636;51.684;5.142;2024-03-06T07:36:53;102139.69;;;2.65;100.00
67840;BME280;54636;51.684;5.142;2024-03-06T07:39:19;102143.09;;;2.73;100.00
67840;BME280;54636;51.684;5.142;2024-03-06T07:41:44;102147.66;;;2.80;100.00
67840;BME280;54636;51.684;5.142;2024-03-06T07:44:10;102150.34;;;2.80;100.00
67840;BME280;54636;51.684;5.142;2024-03-06T07:46:35;102151.03;;;2.91;100.00
67840;BME280;54636;51.684;5.142;2024-03-06T07:49:02;102152.56;;;2.92;100.00
67840;BME280;54636;51.684;5.142;2024-03-06T07:51:29;102162.09;;;3.00;100.00
67840;BME280;54636;51.684;5.142;2024-03-06T07:53:55;102162.81;;;3.04;100.00
67840;BME280;54636;51.684;5.142;2024-03-06T07:56:20;102171.16;;;3.17;100.00
67840;BME280;54636;51.684;5.142;2024-03-06T07:58:46;102172.59;;;3.28;100.00
67840;BME280;54636;51.684;5.142;2024-03-06T08:01:12;102175.22;;;3.36;100.00
67840;BME280;54636;51.684;5.142;2024-03-06T08:03:39;102181.66;;;3.45;100.00
67840;BME280;54636;51.684;5.142;2024-03-06T08:06:06;102181.22;;;3.50;100.00
67840;BME280;54636;51.684;5.142;2024-03-06T08:08:31;102180.88;;;3.48;100.00
67840;BME280;54636;51.684;5.142;2024-03-06T08:10:56;102189.25;;;3.54;100.00
67840;BME280;54636;51.684;5.142;2024-03-06T08:13:22;102187.22;;;3.65;100.00
67840;BME280;54636;51.684;5.142;2024-03-06T08:15:48;102183.66;;;3.79;100.00
67840;BME280;54636;51.684;5.142;2024-03-06T08:18:13;102179.72;;;3.87;100.00
67840;BME280;54636;51.684;5.142;2024-03-06T08:20:40;102191.88;;;3.98;100.00
67840;BME280;54636;51.684;5.142;2024-03-06T08:23:07;102190.63;;;4.07;100.00
67840;BME280;54636;51.684;5.142;2024-03-06T08:25:32;102204.72;;;4.18;100.00
67840;BME280;54636;51.684;5.142;2024-03-06T08:27:58;102204.63;;;4.25;100.00
67840;BME280;54636;51.684;5.142;2024-03-06T08:30:24;102212.25;;;4.30;100.00
67840;BME280;54636;51.684;5.142;2024-03-06T08:32:50;102213.31;;;4.40;100.00
67840;BME280;54636;51.684;5.142;2024-03-06T08:35:16;102215.50;;;4.48;100.00
67840;BME280;54636;51.684;5.142;2024-03-06T08:37:43;102226.06;;;4.62;100.00
67840;BME280;54636;51.684;5.142;2024-03-06T08:40:09;102222.47;;;4.73;100.00
67840;BME280;54636;51.684;5.142;2024-03-06T08:42:48;102230.00;;;4.85;100.00
67840;BME280;54636;51.684;5.142;2024-03-06T08:45:14;102228.63;;;5.00;100.00
67840;BME280;54636;51.684;5.142;2024-03-06T08:47:40;102228.84;;;5.13;100.00
67840;BME280;54636;51.684;5.142;2024-03-06T08:50:06;102229.72;;;5.29;100.00
67840;BME280;54636;51.684;5.142;2024-03-06T08:52:33;102223.34;;;5.43;100.00
67840;BME280;54636;51.684;5.142;2024-03-06T08:55:02;102227.63;;;5.64;100.00
67840;BME280;54636;51.684;5.142;2024-03-06T08:57:29;102231.19;;;5.81;100.00
67840;BME280;54636;51.684;5.142;2024-03-06T08:59:56;102236.38;;;5.91;100.00
67840;BME280;54636;51.684;5.142;2024-03-06T09:02:22;102236.53;;;6.04;100.00
67840;BME280;54636;51.684;5.142;2024-03-06T09:04:47;102243.19;;;6.19;100.00
67840;BME280;54636;51.684;5.142;2024-03-06T09:07:13;102243.00;;;6.30;100.00
67840;BME280;54636;51.684;5.142;2024-03-06T09:09:39;102242.09;;;6.37;100.00
67840;BME280;54636;51.684;5.142;2024-03-06T09:12:06;102227.00;;;6.39;100.00
67840;BME280;54636;51.684;5.142;2024-03-06T09:14:35;102238.53;;;6.59;100.00
67840;BME280;54636;51.684;5.142;2024-03-06T09:17:01;102252.16;;;6.72;100.00
67840;BME280;54636;51.684;5.142;2024-03-06T09:19:26;102257.66;;;6.85;100.00
67840;BME280;54636;51.684;5.142;2024-03-06T09:21:52;102257.44;;;6.96;100.00
67840;BME280;54636;51.684;5.142;2024-03-06T09:24:20;102259.81;;;7.10;100.00
67840;BME280;54636;51.684;5.142;2024-03-06T09:26:47;102257.19;;;7.22;100.00
67840;BME280;54636;51.684;5.142;2024-03-06T09:29:13;102261.50;;;7.36;100.00
67840;BME280;54636;51.684;5.142;2024-03-06T09:31:38;102260.41;;;7.50;100.00
67840;BME280;54636;51.684;5.142;2024-03-06T09:34:03;102266.22;;;7.65;100.00
67840;BME280;54636;51.684;5.142;2024-03-06T09:36:29;102263.59;;;7.77;100.00
67840;BME280;54636;51.684;5.142;2024-03-06T09:38:54;102270.16;;;7.92;100.00
67840;BME280;54636;51.684;5.142;2024-03-06T09:41:21;102271.09;;;8.15;100.00
67840;BME280;54636;51.684;5.142;2024-03-06T09:43:47;102279.88;;;8.35;100.00
67840;BME280;54636;51.684;5.142;2024-03-06T09:46:13;102278.06;;;8.45;100.00
67840;BME280;54636;51.684;5.142;2024-03-06T09:48:46;102284.25;;;8.58;100.00
67840;BME280;54636;51.684;5.142;2024-03-06T09:51:11;102285.56;;;8.66;100.00
67840;BME280;54636;51.684;5.142;2024-03-06T09:53:37;102287.97;;;8.77;100.00
67840;BME280;54636;51.684;5.142;2024-03-06T09:56:04;102290.78;;;8.86;100.00
67840;BME280;54636;51.684;5.142;2024-03-06T09:58:31;102290.47;;;8.97;100.00
67840;BME280;54636;51.684;5.142;2024-03-06T10:00:58;102294.81;;;9.07;100.00
67840;BME280;54636;51.684;5.142;2024-03-06T10:03:25;102297.09;;;9.21;100.00
67840;BME280;54636;51.684;5.142;2024-03-06T10:05:50;102299.25;;;9.26;100.00
67840;BME280;54636;51.684;5.142;2024-03-06T10:08:16;102292.84;;;9.33;100.00
67840;BME280;54636;51.684;5.142;2024-03-06T10:10:42;102296.84;;;9.41;100.00
67840;BME280;54636;51.684;5.142;2024-03-06T10:13:08;102309.66;;;9.53;100.00
67840;BME280;54636;51.684;5.142;2024-03-06T10:15:33;102305.19;;;9.59;100.00
67840;BME280;54636;51.684;5.142;2024-03-06T10:18:14;102299.31;;;9.73;100.00
67840;BME280;54636;51.684;5.142;2024-03-06T10:20:41;102306.06;;;9.90;100.00
67840;BME280;54636;51.684;5.142;2024-03-06T10:23:10;102305.59;;;10.05;100.00
67840;BME280;54636;51.684;5.142;2024-03-06T10:25:36;102305.00;;;10.22;100.00
67840;BME280;54636;51.684;5.142;2024-03-06T10:28:08;102303.69;;;10.27;100.00
67840;BME280;54636;51.684;5.142;2024-03-06T10:30:43;102310.06;;;10.33;100.00
67840;BME280;54636;51.684;5.142;2024-03-06T10:33:11;102307.69;;;10.35;100.00
67840;BME280;54636;51.684;5.142;2024-03-06T10:35:37;102304.56;;;10.46;100.00
67840;BME280;54636;51.684;5.142;2024-03-06T10:38:04;102305.81;;;10.54;100.00
67840;BME280;54636;51.684;5.142;2024-03-06T10:40:35;102314.66;;;10.67;100.00
67840;BME280;54636;51.684;5.142;2024-03-06T10:43:02;102304.47;;;10.80;100.00
67840;BME280;54636;51.684;5.142;2024-03-06T10:45:54;102312.88;;;11.04;100.00
67840;BME280;54636;51.684;5.142;2024-03-06T10:48:26;102313.03;;;11.10;100.00
67840;BME280;54636;51.684;5.142;2024-03-06T10:50:53;102310.03;;;11.17;100.00
67840;BME280;54636;51.684;5.142;2024-03-06T10:53:20;102310.97;;;11.23;100.00
67840;BME280;54636;51.684;5.142;2024-03-06T10:55:46;102313.88;;;11.29;100.00
67840;BME280;54636;51.684;5.142;2024-03-06T10:58:12;102312.53;;;11.33;100.00
67840;BME280;54636;51.684;5.142;2024-03-06T11:00:39;102314.22;;;11.40;100.00
67840;BME280;54636;51.684;5.142;2024-03-06T11:03:06;102318.59;;;11.46;100.00
67840;BME280;54636;51.684;5.142;2024-03-06T11:05:40;102314.66;;;11.38;100.00
67840;BME280;54636;51.684;5.142;2024-03-06T11:08:11;102317.31;;;11.20;100.00
67840;BME280;54636;51.684;5.142;2024-03-06T11:10:38;102317.47;;;11.26;100.00
67840;BME280;54636;51.684;5.142;2024-03-06T11:13:09;102318.72;;;11.34;100.00
67840;BME280;54636;51.684;5.142;2024-03-06T11:15:49;102319.00;;;11.27;100.00
67840;BME280;54636;51.684;5.142;2024-03-06T11:26:35;102320.56;;;11.46;100.00
67840;BME280;54636;51.684;5.142;2024-03-06T11:29:00;102325.41;;;11.42;100.00
67840;BME280;54636;51.684;5.142;2024-03-06T11:31:27;102317.47;;;11.26;100.00
67840;BME280;54636;51.684;5.142;2024-03-06T11:33:53;102320.91;;;11.17;100.00
67840;BME280;54636;51.684;5.142;2024-03-06T11:36:22;102326.56;;;11.32;100.00
67840;BME280;54636;51.684;5.142;2024-03-06T11:41:13;102326.50;;;11.63;96.19
67840;BME280;54636;51.684;5.142;2024-03-06T11:43:45;102334.56;;;11.84;100.00
67840;BME280;54636;51.684;5.142;2024-03-06T11:46:11;102333.97;;;11.99;99.94
67840;BME280;54636;51.684;5.142;2024-03-06T11:48:37;102335.94;;;11.89;92.31
67840;BME280;54636;51.684;5.142;2024-03-06T11:51:04;102332.75;;;11.81;94.71
67840;BME280;54636;51.684;5.142;2024-03-06T11:53:35;102327.16;;;11.85;95.86
67840;BME280;54636;51.684;5.142;2024-03-06T11:56:06;102329.59;;;12.10;95.65
67840;BME280;54636;51.684;5.142;2024-03-06T11:58:32;102337.94;;;12.34;94.94
67840;BME280;54636;51.684;5.142;2024-03-06T12:00:58;102334.56;;;12.48;89.63
67840;BME280;54636;51.684;5.142;2024-03-06T12:03:23;102336.66;;;12.63;85.08
67840;BME280;54636;51.684;5.142;2024-03-06T12:05:50;102332.84;;;12.69;85.71
67840;BME280;54636;51.684;5.142;2024-03-06T12:08:16;102335.25;;;12.85;85.45
67840;BME280;54636;51.684;5.142;2024-03-06T12:10:42;102343.69;;;12.97;82.12
67840;BME280;54636;51.684;5.142;2024-03-06T12:13:07;102340.06;;;13.00;82.59
67840;BME280;54636;51.684;5.142;2024-03-06T12:15:32;102342.72;;;13.18;80.64
67840;BME280;54636;51.684;5.142;2024-03-06T12:17:58;102345.84;;;13.35;80.81
67840;BME280;54636;51.684;5.142;2024-03-06T12:20:24;102348.09;;;13.36;81.51
67840;BME280;54636;51.684;5.142;2024-03-06T12:22:52;102348.13;;;13.27;80.69
67840;BME280;54636;51.684;5.142;2024-03-06T12:25:21;102346.22;;;13.09;80.77
67840;BME280;54636;51.684;5.142;2024-03-06T12:27:47;102353.56;;;12.94;76.37
67840;BME280;54636;51.684;5.142;2024-03-06T12:30:16;102343.47;;;12.67;77.98
67840;BME280;54636;51.684;5.142;2024-03-06T12:32:58;102346.81;;;12.62;80.44
67840;BME280;54636;51.684;5.142;2024-03-06T12:35:25;102335.59;;;12.60;79.31
67840;BME280;54636;51.684;5.142;2024-03-06T12:37:51;102338.88;;;12.82;80.09
67840;BME280;54636;51.684;5.142;2024-03-06T12:40:16;102333.16;;;13.13;81.57
67840;BME280;54636;51.684;5.142;2024-03-06T12:42:42;102338.56;;;13.32;79.08
67840;BME280;54636;51.684;5.142;2024-03-06T12:45:08;102329.75;;;13.37;77.54
67840;BME280;54636;51.684;5.142;2024-03-06T12:47:35;102334.47;;;13.36;76.71
67840;BME280;54636;51.684;5.142;2024-03-06T12:50:00;102334.16;;;13.34;75.30
67840;BME280;54636;51.684;5.142;2024-03-06T12:52:26;102333.88;;;13.32;77.51
67840;BME280;54636;51.684;5.142;2024-03-06T12:54:51;102327.69;;;13.23;77.70
67840;BME280;54636;51.684;5.142;2024-03-06T12:57:16;102340.59;;;13.22;79.05